Terminal Aerodrome Forecast
Issued by NWS

Home | Current Version | Previous Version | Text Only | Print | Product List | Glossary On
Versions: 1 2 3 4 5 6 7 8 9 10 11 12 13 14 15 16 17 18 19 20 21 22 23 24 25 26
000
FTUS41 KRNK 260542 CCA
TAFLWB
TAF COR
KLWB 260542Z 2606/2706 VRB03KT P6SM SCT200
     FM260700 VRB03KT P6SM SCT050
     FM260900 VRB03KT P6SM BKN050
     FM261500 16007KT P6SM -SHRA BKN030
     FM261800 15007KT P6SM -SHRA OVC020
     FM270400 17004KT P6SM BKN007=

USA.gov is the U.S. government's official web portal to all federal, state and local government web resources and services.